Time;durP1;ratioP1;P1;durP2;ratioP2;P2;SDS_P1;SDS_P2;PMS_P1;PMS_P2;Temp;Humidity;BMP_temperature;BMP_pressure;BME280_temperature;BME280_humidity;BME280_pressure;Samples;Min_cycle;Max_cycle;Signal;HPM_P1;HPM_P2
2022/05/07 00:01:34;;;;;;;5.57;5.07;;;;;;;13.55;68.86;101632.53;5037304;28;20570;-50
2022/05/07 00:03:59;;;;;;;6.85;4.63;;;;;;;13.55;69.31;101629.81;5055063;28;20036;-48
2022/05/07 00:06:25;;;;;;;9.30;5.80;;;;;;;13.39;69.79;101611.09;5035975;28;20033;-50
2022/05/07 00:08:51;;;;;;;9.60;4.95;;;;;;;13.48;70.33;101637.84;5055174;28;20111;-48
2022/05/07 00:11:20;;;;;;;6.18;5.60;;;;;;;13.42;70.64;101635.84;5037225;28;20112;-48
2022/05/07 00:13:48;;;;;;;5.82;5.32;;;;;;;13.36;70.08;101637.41;5055197;28;20037;-48
2022/05/07 00:19:00;;;;;;;6.70;5.88;;;;;;;13.27;70.56;101626.88;5040479;28;20036;-48
2022/05/07 00:21:26;;;;;;;8.05;5.68;;;;;;;13.29;70.62;101633.75;5054928;28;20021;-47
2022/05/07 00:23:51;;;;;;;5.75;5.15;;;;;;;13.30;70.43;101635.47;5054175;28;20041;-47
2022/05/07 00:26:17;;;;;;;6.70;5.47;;;;;;;13.29;71.14;101628.34;5054733;28;20029;-47
2022/05/07 00:28:44;;;;;;;5.55;5.05;;;;;;;13.30;70.64;101627.38;5054204;28;20231;-47
2022/05/07 00:31:11;;;;;;;6.72;5.65;;;;;;;13.31;70.70;101626.34;5054720;28;20051;-48
2022/05/07 00:33:36;;;;;;;6.30;4.82;;;;;;;13.32;70.21;101622.63;5038115;28;20540;-49
2022/05/07 00:36:03;;;;;;;5.68;5.13;;;;;;;13.28;70.91;101621.28;5037096;28;20120;-48
2022/05/07 00:38:28;;;;;;;7.15;5.00;;;;;;;13.30;70.51;101623.81;5054501;28;20355;-47
2022/05/07 00:40:55;;;;;;;7.03;5.30;;;;;;;13.22;71.21;101611.22;5054537;28;20051;-53
2022/05/07 00:43:21;;;;;;;5.75;5.07;;;;;;;13.21;71.01;101609.56;5020106;28;20024;-54
2022/05/07 00:45:47;;;;;;;9.13;5.53;;;;;;;13.27;71.05;101622.28;5044693;28;20067;-48
2022/05/07 00:48:14;;;;;;;6.63;5.90;;;;;;;13.25;71.57;101618.94;5073967;28;20036;-49
2022/05/07 00:53:27;;;;;;;5.85;5.13;;;;;;;13.26;71.46;101617.09;5058885;28;20134;-47
2022/05/07 00:55:52;;;;;;;4.57;4.18;;;;;;;13.26;70.72;101609.00;5073662;28;20370;-48
2022/05/07 00:58:19;;;;;;;8.27;5.57;;;;;;;13.28;71.30;101606.94;5073315;28;20111;-49
2022/05/07 01:00:45;;;;;;;6.32;4.85;;;;;;;13.27;71.62;101616.06;5073975;28;20119;-48
2022/05/07 01:03:11;;;;;;;5.82;5.10;;;;;;;13.27;71.87;101610.69;5073875;28;20108;-47
2022/05/07 01:05:39;;;;;;;6.00;5.22;;;;;;;13.29;71.54;101612.16;5039036;28;20033;-47
2022/05/07 01:08:08;;;;;;;5.88;4.45;;;;;;;13.23;71.45;101599.41;5074183;28;20107;-47
2022/05/07 01:10:34;;;;;;;8.70;4.97;;;;;;;13.25;71.88;101604.63;5056128;28;20043;-48
2022/05/07 01:13:00;;;;;;;7.13;5.57;;;;;;;13.25;72.41;101608.16;5055676;28;20115;-48
2022/05/07 01:15:26;;;;;;;5.88;5.28;;;;;;;13.20;72.30;101599.78;5039153;28;20089;-49
2022/05/07 01:17:51;;;;;;;5.68;5.10;;;;;;;13.30;72.46;101615.72;5073053;28;20025;-48
2022/05/07 01:20:17;;;;;;;7.22;5.28;;;;;;;13.27;72.57;101606.13;5073594;28;20021;-49
2022/05/07 01:22:44;;;;;;;7.28;5.63;;;;;;;13.28;72.77;101613.19;5038868;28;20458;-49
2022/05/07 01:25:10;;;;;;;6.60;5.40;;;;;;;13.22;72.28;101600.41;5055186;28;20357;-46
2022/05/07 01:27:35;;;;;;;8.52;5.38;;;;;;;13.27;72.38;101603.41;5055446;28;20025;-47
2022/05/07 01:30:01;;;;;;;6.88;5.38;;;;;;;13.28;73.11;101605.09;5073454;28;20044;-47
2022/05/07 01:32:27;;;;;;;8.77;5.95;;;;;;;13.25;72.93;101600.06;5073369;28;20086;-48
2022/05/07 01:34:53;;;;;;;5.70;5.15;;;;;;;13.28;73.16;101606.94;5073580;28;20055;-50
2022/05/07 01:37:20;;;;;;;6.55;5.57;;;;;;;13.28;73.04;101605.09;5073671;28;20342;-49
2022/05/07 01:39:46;;;;;;;7.78;5.97;;;;;;;13.29;73.37;101605.94;5073500;28;20032;-48
2022/05/07 01:42:12;;;;;;;6.57;5.97;;;;;;;13.28;74.12;101606.94;5055269;28;20028;-47
2022/05/07 01:44:38;;;;;;;6.75;6.20;;;;;;;13.23;75.10;101607.50;5071883;28;20025;-47
2022/05/07 01:49:50;;;;;;;8.25;6.40;;;;;;;13.12;76.24;101605.25;5038321;28;20444;-47
2022/05/07 01:52:16;;;;;;;6.82;6.13;;;;;;;13.06;75.52;101595.19;5053214;28;20036;-49
2022/05/07 01:54:42;;;;;;;6.47;5.88;;;;;;;13.08;75.68;101601.25;5035669;28;20033;-47
2022/05/07 01:57:08;;;;;;;6.55;5.85;;;;;;;13.05;75.83;101605.13;5018881;28;20033;-47
2022/05/07 01:59:34;;;;;;;8.15;6.15;;;;;;;12.92;76.27;101577.94;5052909;28;20048;-48
2022/05/07 02:01:59;;;;;;;7.40;6.38;;;;;;;13.04;76.29;101595.38;5052990;28;20098;-48
2022/05/07 02:04:25;;;;;;;8.07;7.25;;;;;;;13.06;76.75;101601.44;5052992;28;20037;-49
2022/05/07 02:06:52;;;;;;;9.65;6.97;;;;;;;13.01;76.92;101594.91;5052932;28;20112;-48
2022/05/07 02:09:18;;;;;;;10.43;6.75;;;;;;;12.99;76.57;101595.06;5052310;28;20052;-48
2022/05/07 02:11:44;;;;;;;7.97;6.97;;;;;;;12.92;76.89;101578.78;5050774;28;20025;-47
2022/05/07 02:14:10;;;;;;;8.45;6.13;;;;;;;12.98;76.91;101594.25;5052302;28;20440;-47
2022/05/07 02:16:36;;;;;;;7.18;6.47;;;;;;;12.85;76.20;101577.84;5052295;28;20043;-46
2022/05/07 02:19:02;;;;;;;9.57;6.40;;;;;;;12.84;77.01;101578.03;5052213;28;20078;-47
2022/05/07 02:21:28;;;;;;;7.30;6.60;;;;;;;12.92;77.07;101592.25;5033975;28;20480;-47
2022/05/07 02:23:54;;;;;;;8.20;7.10;;;;;;;12.89;76.88;101592.63;5034151;28;20041;-46
2022/05/07 02:26:20;;;;;;;8.45;6.47;;;;;;;12.89;77.02;101595.34;5051894;28;20033;-46
2022/05/07 02:28:47;;;;;;;7.82;6.00;;;;;;;12.92;76.89;101602.22;5052005;28;20032;-46
2022/05/07 02:31:13;;;;;;;8.15;6.35;;;;;;;12.94;76.59;101609.09;5056215;28;20412;-46
2022/05/07 02:33:38;;;;;;;9.20;5.70;;;;;;;12.88;76.95;101596.34;5037934;28;20033;-47
2022/05/07 02:36:04;;;;;;;6.95;6.32;;;;;;;12.86;77.12;101601.09;5037748;28;20033;-47
2022/05/07 02:38:30;;;;;;;7.28;6.53;;;;;;;12.89;77.78;101608.81;5055622;28;20082;-47
2022/05/07 02:43:42;;;;;;;7.60;6.57;;;;;;;12.78;77.48;101593.91;5040747;28;20052;-48
2022/05/07 02:46:09;;;;;;;6.90;6.22;;;;;;;12.87;77.31;101610.84;5048514;28;20133;-47
2022/05/07 02:48:36;;;;;;;8.80;6.55;;;;;;;12.81;77.21;101602.63;5075627;28;20081;-47
2022/05/07 02:51:03;;;;;;;8.45;6.63;;;;;;;12.85;77.57;101612.91;5058135;28;20024;-47
2022/05/07 02:53:29;;;;;;;8.25;6.88;;;;;;;12.77;76.94;101600.28;5057590;28;20521;-47
2022/05/07 02:55:55;;;;;;;7.82;7.03;;;;;;;12.84;76.67;101605.00;5075612;28;20120;-46
2022/05/07 02:58:21;;;;;;;12.20;6.68;;;;;;;12.89;77.04;101614.22;5075351;28;20060;-47
2022/05/07 03:00:49;;;;;;;8.93;6.82;;;;;;;12.89;77.26;101616.91;5057491;28;20032;-47
2022/05/07 03:03:15;;;;;;;8.52;6.50;;;;;;;12.91;77.22;101612.16;5075583;28;20024;-49
2022/05/07 03:05:41;;;;;;;6.88;5.85;;;;;;;12.89;76.76;101607.97;5074833;28;20535;-47
2022/05/07 03:08:07;;;;;;;9.65;6.82;;;;;;;12.94;77.25;101608.25;5057396;28;20457;-49
2022/05/07 03:10:33;;;;;;;7.35;6.65;;;;;;;12.92;77.17;101607.59;5075945;28;20040;-47
2022/05/07 03:12:58;;;;;;;6.63;5.85;;;;;;;12.83;76.55;101592.50;5061113;28;20060;-46
2022/05/07 03:15:24;;;;;;;7.80;6.70;;;;;;;12.92;77.14;101605.75;5077133;28;20032;-47
2022/05/07 03:17:50;;;;;;;10.68;7.75;;;;;;;12.89;77.68;101598.03;5076279;28;20048;-48
2022/05/07 03:20:17;;;;;;;7.93;6.97;;;;;;;12.95;77.47;101610.78;5076336;28;20067;-48
2022/05/07 03:22:45;;;;;;;6.30;5.70;;;;;;;12.95;77.10;101607.25;5076901;28;20092;-48
2022/05/07 03:25:11;;;;;;;6.00;5.50;;;;;;;12.91;77.00;101600.56;5058665;28;20028;-48
2022/05/07 03:27:37;;;;;;;8.50;6.40;;;;;;;12.89;77.30;101603.44;5057874;28;20093;-48
2022/05/07 03:30:04;;;;;;;7.68;6.90;;;;;;;12.86;77.49;101582.22;5075411;28;20021;-49
2022/05/07 03:32:30;;;;;;;9.00;6.38;;;;;;;12.89;77.61;101603.44;5057641;28;20038;-49
2022/05/07 03:34:57;;;;;;;7.70;7.10;;;;;;;12.84;77.78;101597.72;5074675;28;20086;-47
2022/05/07 03:37:23;;;;;;;8.73;7.15;;;;;;;12.86;77.67;101602.94;5075160;28;20485;-47
2022/05/07 03:39:50;;;;;;;8.23;6.43;;;;;;;12.88;77.39;101604.44;5074620;28;20036;-48
2022/05/07 03:42:17;;;;;;;9.57;7.50;;;;;;;12.89;78.00;101608.81;5040269;28;20028;-48
2022/05/07 03:44:43;;;;;;;8.10;6.95;;;;;;;12.78;77.85;101599.28;5074765;28;20028;-49
2022/05/07 03:47:09;;;;;;;8.77;6.97;;;;;;;12.85;78.10;101612.91;5054798;28;20049;-51
2022/05/07 03:49:34;;;;;;;7.53;6.90;;;;;;;12.84;77.94;101610.38;5036446;28;20025;-47
2022/05/07 03:54:46;;;;;;;8.80;7.05;;;;;;;12.65;78.24;101585.59;5039394;28;20028;-47
2022/05/07 03:57:13;;;;;;;9.15;7.35;;;;;;;12.76;78.41;101604.03;5054585;28;20029;-48
2022/05/07 03:59:39;;;;;;;9.70;6.72;;;;;;;12.78;78.31;101602.00;5054058;28;20040;-48
2022/05/07 04:02:06;;;;;;;8.60;6.78;;;;;;;12.83;78.50;101614.91;5019787;28;20120;-48
2022/05/07 04:04:32;;;;;;;9.15;7.90;;;;;;;12.83;79.14;101611.38;5054325;28;20091;-47
2022/05/07 04:06:59;;;;;;;7.22;6.57;;;;;;;12.82;78.71;101610.56;5036547;28;20135;-49
2022/05/07 04:09:25;;;;;;;8.13;7.43;;;;;;;12.77;79.26;101604.84;5037193;28;20025;-47
2022/05/07 04:11:51;;;;;;;7.93;6.90;;;;;;;12.78;78.72;101606.53;5054274;28;20477;-47
2022/05/07 04:14:16;;;;;;;8.32;7.53;;;;;;;12.84;78.95;101618.47;5054520;28;20041;-48
2022/05/07 04:16:42;;;;;;;8.63;7.85;;;;;;;12.73;78.50;101598.16;5053793;28;20477;-48
2022/05/07 04:19:09;;;;;;;7.65;6.95;;;;;;;12.89;78.43;101624.13;5053973;28;20461;-49
2022/05/07 04:21:37;;;;;;;9.10;8.07;;;;;;;12.85;78.16;101621.00;5053907;28;20025;-47
2022/05/07 04:24:05;;;;;;;12.02;7.35;;;;;;;12.84;78.89;101619.28;5036215;28;20086;-47
2022/05/07 04:26:30;;;;;;;8.90;8.00;;;;;;;12.80;78.83;101620.69;5053905;28;20068;-48
2022/05/07 04:28:56;;;;;;;9.02;7.57;;;;;;;12.75;79.23;101607.72;5036089;28;20483;-48
2022/05/07 04:31:22;;;;;;;8.13;7.32;;;;;;;12.84;79.14;101630.06;5053680;28;20074;-48
2022/05/07 04:33:48;;;;;;;9.60;8.07;;;;;;;12.84;79.38;101637.34;5053931;28;20140;-48
2022/05/07 04:36:13;;;;;;;6.63;5.90;;;;;;;12.82;78.46;101640.22;5053197;28;20032;-47
2022/05/07 04:38:39;;;;;;;9.60;7.32;;;;;;;12.83;78.72;101630.25;5053453;28;20029;-48
2022/05/07 04:41:05;;;;;;;8.35;7.47;;;;;;;12.83;79.68;101641.88;5053442;28;20029;-47
2022/05/07 04:43:31;;;;;;;8.48;7.65;;;;;;;12.83;79.48;101641.03;5035388;28;20462;-47
2022/05/07 04:45:57;;;;;;;9.20;7.95;;;;;;;12.82;80.06;101642.91;5011975;28;20123;-48
2022/05/07 04:48:23;;;;;;;9.20;8.15;;;;;;;12.84;79.93;101648.13;5073126;28;20461;-48
2022/05/07 04:50:48;;;;;;;9.15;8.23;;;;;;;12.83;80.01;101649.94;5055506;28;20081;-46
2022/05/07 04:53:14;;;;;;;9.35;8.45;;;;;;;12.84;79.86;101653.50;5054552;28;20024;-49
2022/05/07 04:55:40;;;;;;;8.35;6.88;;;;;;;12.87;79.61;101661.22;5073041;28;20091;-47
2022/05/07 04:58:06;;;;;;;8.90;8.10;;;;;;;12.86;79.96;101665.78;5073388;28;20028;-48
2022/05/07 05:00:31;;;;;;;9.05;8.25;;;;;;;12.85;79.76;101658.72;5055285;28;20028;-47
2022/05/07 05:02:57;;;;;;;10.68;8.38;;;;;;;12.87;80.10;101662.09;5073053;28;20039;-48
2022/05/07 05:05:25;;;;;;;9.02;8.15;;;;;;;12.84;80.31;101659.72;5072884;28;20132;-50
2022/05/07 05:07:51;;;;;;;8.82;8.02;;;;;;;12.86;80.16;101671.19;5055972;28;20369;-48
2022/05/07 05:10:18;;;;;;;8.88;8.02;;;;;;;12.88;80.07;101673.69;5071834;28;20044;-52
2022/05/07 05:12:44;;;;;;;9.18;8.38;;;;;;;12.75;80.30;101658.94;5055315;28;20024;-49
2022/05/07 05:15:11;;;;;;;9.32;8.38;;;;;;;12.82;80.54;101661.78;5073565;28;20050;-52
2022/05/07 05:17:37;;;;;;;7.55;6.70;;;;;;;12.90;80.01;101680.56;5058454;28;20020;-53
2022/05/07 05:20:05;;;;;;;9.40;7.90;;;;;;;12.89;79.93;101665.44;5077512;28;20070;-52
2022/05/07 05:22:31;;;;;;;8.10;7.30;;;;;;;12.89;79.65;101667.28;5059881;28;20127;-51
2022/05/07 05:24:57;;;;;;;7.75;6.95;;;;;;;12.95;79.65;101675.50;5076690;28;20032;-50
2022/05/07 05:27:23;;;;;;;10.70;9.75;;;;;;;13.03;79.71;101684.53;5074644;28;20082;-50
2022/05/07 05:29:49;;;;;;;9.50;8.60;;;;;;;13.02;79.43;101681.03;5073392;28;20029;-48
2022/05/07 05:32:19;;;;;;;9.93;8.93;;;;;;;13.05;79.75;101680.63;5054815;28;20098;-48
2022/05/07 05:34:46;;;;;;;10.30;9.27;;;;;;;12.93;79.83;101664.06;5038782;28;20100;-48
2022/05/07 05:37:14;;;;;;;9.50;8.65;;;;;;;13.09;79.92;101695.47;5054645;28;20095;-48
2022/05/07 05:39:40;;;;;;;10.07;9.07;;;;;;;13.01;79.62;101684.72;5073577;28;20052;-49
2022/05/07 05:42:06;;;;;;;9.75;8.85;;;;;;;13.04;79.29;101678.97;5055937;28;20116;-48
2022/05/07 05:44:36;;;;;;;12.48;9.10;;;;;;;13.10;79.50;101686.34;5073179;28;20028;-48
2022/05/07 05:47:02;;;;;;;9.43;8.52;;;;;;;13.20;79.34;101694.19;5055018;28;20055;-48
2022/05/07 05:49:28;;;;;;;10.73;9.68;;;;;;;13.24;80.08;101700.06;5072908;28;20028;-48
2022/05/07 05:51:53;;;;;;;10.48;9.48;;;;;;;13.28;79.84;101704.91;5072682;28;20112;-48
2022/05/07 05:54:19;;;;;;;9.65;8.75;;;;;;;13.35;79.37;101699.66;5072297;28;20024;-47
2022/05/07 05:56:45;;;;;;;9.82;8.93;;;;;;;13.45;79.18;101708.34;5072269;28;20147;-47
2022/05/07 05:59:11;;;;;;;8.77;7.88;;;;;;;13.57;78.61;101703.34;5073076;28;20036;-47
2022/05/07 06:01:37;;;;;;;9.13;8.32;;;;;;;13.63;78.39;101702.63;5072427;28;20099;-47
2022/05/07 06:04:03;;;;;;;9.60;8.60;;;;;;;13.67;79.06;101709.34;5075341;28;20024;-50
2022/05/07 06:06:29;;;;;;;8.63;7.93;;;;;;;13.69;78.75;101707.28;5077022;28;20082;-48
2022/05/07 06:08:54;;;;;;;10.27;8.93;;;;;;;13.72;78.67;101716.88;5077272;28;20029;-48
2022/05/07 06:11:20;;;;;;;9.57;8.65;;;;;;;13.73;78.62;101719.41;5076391;28;20032;-48
2022/05/07 06:13:47;;;;;;;10.05;9.15;;;;;;;13.66;78.48;101710.34;5076855;28;20039;-48
2022/05/07 06:16:14;;;;;;;9.23;8.40;;;;;;;13.77;78.22;101719.03;5058807;28;20431;-48
2022/05/07 06:18:40;;;;;;;10.57;9.20;;;;;;;13.85;78.33;101721.63;5076222;28;20032;-48
2022/05/07 06:21:05;;;;;;;11.88;9.35;;;;;;;13.83;78.66;101724.53;5059014;28;20426;-50
2022/05/07 06:23:32;;;;;;;9.50;8.50;;;;;;;13.79;78.03;101720.50;5058365;28;20032;-49
2022/05/07 06:28:44;;;;;;;10.75;9.73;;;;;;;13.85;78.31;101730.56;5044506;28;20059;-49
2022/05/07 06:31:10;;;;;;;9.82;8.93;;;;;;;13.93;78.01;101737.78;5076259;28;20458;-49
2022/05/07 06:33:39;;;;;;;10.27;9.38;;;;;;;14.02;77.83;101733.97;5079350;28;20036;-48
2022/05/07 06:36:06;;;;;;;10.07;9.13;;;;;;;13.89;77.75;101722.94;5044920;28;20031;-48
2022/05/07 06:38:33;;;;;;;9.50;8.70;;;;;;;13.98;77.82;101740.75;5079085;28;20028;-48
2022/05/07 06:41:02;;;;;;;9.65;8.75;;;;;;;14.03;77.63;101732.94;5079266;28;20072;-48
2022/05/07 06:43:30;;;;;;;9.88;8.88;;;;;;;14.06;77.64;101719.06;5078016;28;20036;-49
2022/05/07 06:45:57;;;;;;;9.10;8.23;;;;;;;14.20;77.60;101722.78;5067671;28;20037;-48
2022/05/07 06:48:24;;;;;;;10.80;9.77;;;;;;;14.31;77.74;101740.38;5056241;28;20036;-48
2022/05/07 06:50:51;;;;;;;12.23;11.02;;;;;;;14.33;77.50;101741.03;5055708;28;20029;-49
2022/05/07 06:53:16;;;;;;;13.60;12.25;;;;;;;14.25;77.48;101741.16;5056105;28;20382;-48
2022/05/07 06:55:59;;;;;;;14.45;13.15;;;;;;;14.18;77.68;101743.75;5037935;28;20117;-47
2022/05/07 06:58:27;;;;;;;12.02;11.02;;;;;;;14.07;77.67;101736.94;5055036;28;20098;-49
2022/05/07 07:00:53;;;;;;;12.73;11.48;;;;;;;14.06;77.80;101737.09;5038806;28;20029;-51
2022/05/07 07:03:19;;;;;;;14.43;12.88;;;;;;;14.17;77.89;101747.50;5038345;28;20538;-48
2022/05/07 07:05:46;;;;;;;14.88;13.50;;;;;;;14.25;77.84;101757.38;5055331;28;20185;-49
2022/05/07 07:08:12;;;;;;;14.77;13.38;;;;;;;14.35;76.92;101754.38;5055952;28;20037;-49
2022/05/07 07:10:40;;;;;;;12.60;11.50;;;;;;;14.35;77.04;101744.38;5041829;28;20481;-47
2022/05/07 07:13:06;;;;;;;15.75;14.05;;;;;;;14.42;77.51;101760.72;5056181;28;20064;-48
2022/05/07 07:15:32;;;;;;;14.65;13.23;;;;;;;14.31;77.04;101751.19;5056199;28;20060;-49
2022/05/07 07:17:58;;;;;;;15.52;13.95;;;;;;;14.34;77.06;101764.34;5058552;28;20033;-52
2022/05/07 07:20:24;;;;;;;16.35;14.75;;;;;;;14.30;76.84;101763.88;5058234;28;20111;-52
2022/05/07 07:22:51;;;;;;;15.68;14.18;;;;;;;14.35;76.56;101760.59;5057264;28;20032;-49
2022/05/07 07:25:17;;;;;;;17.73;14.98;;;;;;;14.57;76.30;101766.97;5058103;28;20033;-50
2022/05/07 07:27:45;;;;;;;17.60;16.00;;;;;;;14.67;76.00;101772.94;5042522;28;20041;-51
2022/05/07 07:30:11;;;;;;;16.42;14.85;;;;;;;14.71;75.61;101773.41;5062327;28;20029;-49
2022/05/07 07:32:37;;;;;;;15.75;14.45;;;;;;;14.83;75.30;101774.56;5060959;28;20469;-50
2022/05/07 07:35:05;;;;;;;15.27;13.93;;;;;;;15.33;74.25;101773.88;5055903;28;20036;-49
2022/05/07 07:37:32;;;;;;;13.77;12.55;;;;;;;15.86;71.81;101760.81;5055674;28;20021;-48
2022/05/07 07:40:00;;;;;;;12.80;11.57;;;;;;;15.78;72.13;101769.09;5055922;28;20090;-48
2022/05/07 07:42:27;;;;;;;12.35;11.25;;;;;;;15.61;72.57;101773.94;5055142;28;20520;-49
2022/05/07 07:50:27;;;;;;;12.10;10.95;;;;;;;14.59;75.94;101797.34;5042499;28;20029;-50
2022/05/07 07:52:54;;;;;;;16.77;14.75;;;;;;;14.38;76.80;101791.84;5037779;28;20033;-49
2022/05/07 07:55:20;;;;;;;17.60;14.68;;;;;;;14.26;77.73;101795.00;5056130;28;20033;-48
2022/05/07 07:57:46;;;;;;;18.35;15.35;;;;;;;14.14;77.89;101804.59;5038818;28;20033;-50
2022/05/07 08:00:13;;;;;;;21.83;17.52;;;;;;;13.99;77.97;101792.91;5037686;28;20036;-49
2022/05/07 08:02:47;;;;;;;21.38;17.45;;;;;;;13.93;79.35;101806.13;5037692;28;20032;-48
2022/05/07 08:05:13;;;;;;;;;;;;;;;13.93;79.29;101806.13;5055474;28;20036;-48
2022/05/07 08:13:10;;;;;;;18.30;15.10;;;;;;;13.87;78.45;101789.81;5026141;28;20155;-48
2022/05/07 08:15:37;;;;;;;16.50;13.75;;;;;;;13.98;78.52;101818.25;5054629;28;20493;-48
2022/05/07 08:18:05;;;;;;;14.68;13.10;;;;;;;13.82;78.59;101792.22;5055438;28;20040;-47
2022/05/07 08:20:31;;;;;;;15.10;13.60;;;;;;;14.05;78.06;101813.78;5037195;28;20108;-49
2022/05/07 08:22:57;;;;;;;12.98;11.73;;;;;;;14.25;77.46;101824.91;5036629;28;20072;-49
2022/05/07 08:25:22;;;;;;;12.35;11.25;;;;;;;14.30;77.69;101826.03;5053104;28;20086;-48
2022/05/07 08:27:48;;;;;;;12.05;10.95;;;;;;;14.26;77.43;101808.53;5053742;28;20120;-48
2022/05/07 08:30:14;;;;;;;14.23;11.93;;;;;;;14.27;78.00;101830.97;5054812;28;20158;-47
2022/05/07 08:32:40;;;;;;;13.43;12.02;;;;;;;14.18;78.36;101819.41;5054687;28;20416;-48
2022/05/07 08:35:07;;;;;;;11.90;10.77;;;;;;;14.27;78.38;101833.66;5053451;28;20028;-47
2022/05/07 08:37:32;;;;;;;11.65;10.45;;;;;;;14.26;77.74;101831.97;5035890;28;20029;-48
2022/05/07 08:40:01;;;;;;;9.57;8.82;;;;;;;14.49;77.78;101830.06;5053898;28;20094;-56
2022/05/07 08:42:29;;;;;;;8.32;7.72;;;;;;;14.86;76.47;101827.47;5036277;28;20029;-52
2022/05/07 08:44:56;;;;;;;7.82;7.22;;;;;;;15.16;75.30;101839.06;5035576;28;20053;-49
2022/05/07 08:47:23;;;;;;;7.20;6.65;;;;;;;15.28;74.40;101839.41;5053407;28;20040;-48
2022/05/07 08:49:50;;;;;;;6.82;6.32;;;;;;;15.55;73.96;101839.69;5053755;28;20367;-48
2022/05/07 08:52:18;;;;;;;4.97;4.68;;;;;;;15.55;73.54;101832.41;5052602;28;20450;-47
2022/05/07 08:54:49;;;;;;;5.53;5.13;;;;;;;15.61;73.35;101847.88;5036715;28;20044;-49
2022/05/07 08:57:15;;;;;;;5.88;5.38;;;;;;;15.37;73.72;101822.00;5054426;28;20065;-48
2022/05/07 08:59:43;;;;;;;5.50;5.10;;;;;;;15.38;73.86;101847.19;5053928;28;20033;-47
2022/05/07 09:02:13;;;;;;;4.13;3.83;;;;;;;15.17;74.04;101829.06;5036281;28;20358;-48
2022/05/07 09:04:38;;;;;;;3.92;3.63;;;;;;;15.17;73.96;101848.00;5036201;28;20047;-47
2022/05/07 09:07:14;;;;;;;4.32;4.03;;;;;;;15.09;74.19;101835.44;5036561;28;20032;-48
2022/05/07 09:09:48;;;;;;;4.50;3.75;;;;;;;15.07;74.45;101834.78;5053735;28;20075;-47
2022/05/07 09:12:29;;;;;;;4.78;4.43;;;;;;;15.19;73.37;101840.53;5054046;28;20044;-48
2022/05/07 09:15:11;;;;;;;5.45;5.05;;;;;;;15.40;73.61;101858.72;5036014;28;20028;-47
2022/05/07 09:17:37;;;;;;;6.55;6.05;;;;;;;15.40;73.62;101840.59;5053870;28;20061;-47
2022/05/07 09:20:18;;;;;;;6.53;5.93;;;;;;;15.55;73.11;101850.53;5054191;28;20364;-50
2022/05/07 09:22:55;;;;;;;8.68;7.97;;;;;;;15.49;73.76;101850.25;5054200;28;20037;-48
2022/05/07 09:25:22;;;;;;;11.00;9.95;;;;;;;15.50;73.20;101859.22;5053908;28;20031;-47
2022/05/07 09:27:51;;;;;;;12.25;11.07;;;;;;;15.59;73.64;101860.78;5054527;28;20117;-47
2022/05/07 09:30:25;;;;;;;14.50;13.00;;;;;;;15.69;73.94;101863.16;5054383;28;20112;-49
2022/05/07 09:32:56;;;;;;;21.47;17.47;;;;;;;15.73;73.59;101864.47;5054024;28;20033;-47
2022/05/07 09:38:14;;;;;;;23.45;18.52;;;;;;;15.35;74.38;101861.97;5038698;28;20040;-48
2022/05/07 09:40:43;;;;;;;23.70;19.30;;;;;;;15.29;75.07;101855.44;5054732;28;20033;-47
2022/05/07 09:43:11;;;;;;;21.95;18.90;;;;;;;15.39;74.54;101863.25;5054158;28;20496;-49
2022/05/07 09:45:38;;;;;;;27.35;21.67;;;;;;;15.37;74.37;101868.03;5043537;28;20044;-49
2022/05/07 09:48:05;;;;;;;26.83;20.35;;;;;;;15.27;73.81;101860.22;5057467;28;20037;-51
2022/05/07 09:50:46;;;;;;;26.88;21.63;;;;;;;15.27;74.34;101864.81;5075529;28;20037;-51
2022/05/07 09:58:51;;;;;;;29.80;23.27;;;;;;;15.75;72.64;101869.69;5060926;28;20040;-48
2022/05/07 10:01:44;;;;;;;30.45;21.90;;;;;;;15.71;73.18;101869.22;5075828;28;20028;-48
2022/05/07 10:04:23;;;;;;;26.60;20.65;;;;;;;15.55;73.67;101859.50;5060211;28;20052;-53
2022/05/07 10:07:28;;;;;;;24.88;20.35;;;;;;;15.39;74.24;101871.38;5058948;28;20029;-47
2022/05/07 10:10:25;;;;;;;24.15;19.05;;;;;;;15.26;73.94;101866.66;5064211;28;20399;-49
2022/05/07 10:12:55;;;;;;;24.77;20.08;;;;;;;15.39;72.88;101865.97;5060309;28;20369;-49
2022/05/07 10:15:23;;;;;;;19.42;16.80;;;;;;;15.47;73.00;101863.16;5074668;28;20078;-49
2022/05/07 10:17:58;;;;;;;21.85;17.55;;;;;;;15.65;72.81;101870.00;5057455;28;20366;-47
2022/05/07 10:20:24;;;;;;;24.05;19.38;;;;;;;15.65;72.72;101876.25;5075295;28;20029;-48
2022/05/07 10:22:58;;;;;;;25.55;19.95;;;;;;;15.71;72.41;101871.91;5055675;28;20040;-50
2022/05/07 10:25:23;;;;;;;24.95;20.33;;;;;;;15.79;72.61;101866.44;5055896;28;20028;-47
2022/05/07 10:27:51;;;;;;;25.52;21.52;;;;;;;16.03;71.73;101869.78;5075235;28;20021;-48
2022/05/07 10:30:23;;;;;;;22.00;18.45;;;;;;;16.11;71.17;101869.63;5074133;28;20037;-49
2022/05/07 10:32:57;;;;;;;23.90;19.40;;;;;;;16.25;71.26;101868.69;5055937;28;20109;-50
2022/05/07 10:35:41;;;;;;;31.38;19.55;;;;;;;16.23;71.05;101868.06;5075068;28;20029;-50
2022/05/07 10:38:08;;;;;;;22.42;18.38;;;;;;;16.41;70.20;101870.25;5073335;28;20036;-49
2022/05/07 10:40:34;;;;;;;22.33;17.60;;;;;;;16.53;70.19;101875.13;5072674;28;20036;-49
2022/05/07 10:43:00;;;;;;;24.75;20.20;;;;;;;16.47;69.31;101873.22;5055854;28;20563;-52
2022/05/07 10:45:27;;;;;;;23.27;18.83;;;;;;;16.33;69.38;101875.84;5054381;28;20190;-48
2022/05/07 10:47:55;;;;;;;20.05;17.00;;;;;;;16.43;68.65;101876.31;5072819;28;20036;-48
2022/05/07 10:50:22;;;;;;;19.98;17.00;;;;;;;16.36;69.37;101869.19;5073663;28;20025;-48
2022/05/07 10:52:56;;;;;;;22.73;16.98;;;;;;;16.69;68.26;101865.84;5076496;28;20116;-48
2022/05/07 10:55:25;;;;;;;18.58;16.23;;;;;;;17.29;67.15;101879.72;5077064;28;20021;-49
2022/05/07 10:57:52;;;;;;;18.60;16.15;;;;;;;17.72;66.33;101863.16;5076830;28;20107;-48
2022/05/07 11:00:20;;;;;;;17.40;14.77;;;;;;;18.28;65.08;101876.34;5075919;28;20029;-48
2022/05/07 11:02:48;;;;;;;19.77;15.52;;;;;;;18.36;64.85;101851.66;5075626;28;20024;-47
2022/05/07 11:05:15;;;;;;;15.73;14.13;;;;;;;18.25;64.80;101875.94;5075856;28;20032;-51
2022/05/07 11:07:43;;;;;;;20.55;15.73;;;;;;;18.27;63.74;101882.84;5075969;28;20032;-49
2022/05/07 11:10:11;;;;;;;18.20;16.40;;;;;;;18.50;61.99;101871.53;5056853;28;20100;-48
2022/05/07 11:12:38;;;;;;;16.85;15.10;;;;;;;18.82;61.98;101871.69;5056982;28;20039;-49
2022/05/07 11:15:07;;;;;;;17.52;15.82;;;;;;;19.24;60.44;101874.88;5040128;28;20036;-48
2022/05/07 11:17:35;;;;;;;17.77;15.88;;;;;;;20.25;58.94;101875.06;5074814;28;20062;-52
2022/05/07 11:20:04;;;;;;;17.48;14.80;;;;;;;20.72;57.51;101869.16;5074679;28;20465;-51
2022/05/07 11:22:30;;;;;;;16.10;14.55;;;;;;;21.04;56.21;101857.03;5056990;28;20064;-49
2022/05/07 11:25:01;;;;;;;15.00;13.50;;;;;;;20.77;56.39;101861.13;5074964;28;20028;-48
2022/05/07 11:27:36;;;;;;;16.58;14.88;;;;;;;19.89;57.54;101858.38;5075427;28;20044;-51
2022/05/07 11:30:04;;;;;;;16.27;14.32;;;;;;;19.34;59.20;101869.78;5072990;28;20090;-49
2022/05/07 11:32:40;;;;;;;16.75;14.85;;;;;;;19.04;58.96;101874.13;5056604;28;20025;-48
2022/05/07 11:35:07;;;;;;;15.20;13.70;;;;;;;18.98;58.59;101866.81;5075803;28;20451;-48
2022/05/07 11:37:48;;;;;;;15.20;13.70;;;;;;;19.17;58.79;101867.78;5076964;28;20111;-48
2022/05/07 11:40:25;;;;;;;15.18;13.68;;;;;;;20.86;56.43;101860.59;5076404;28;20392;-49
2022/05/07 11:45:25;;;;;;;14.70;13.20;;;;;;;22.39;53.29;101859.44;5058346;28;20028;-48
2022/05/07 11:45:37;;;;;;;11.43;10.35;;;;;;;22.95;52.08;101844.19;5059057;28;20564;-48
2022/05/07 11:48:13;;;;;;;11.75;10.75;;;;;;;22.90;50.83;101848.75;5073028;28;20080;-48
2022/05/07 11:50:49;;;;;;;9.50;8.57;;;;;;;24.99;46.67;101842.34;5075671;28;20036;-52
2022/05/07 11:53:17;;;;;;;8.82;7.97;;;;;;;24.87;47.84;101841.63;5058188;28;20028;-49
2022/05/07 11:55:44;;;;;;;7.85;7.05;;;;;;;23.19;50.14;101844.97;5075346;28;20085;-48
2022/05/07 11:58:17;;;;;;;7.95;7.25;;;;;;;21.86;51.11;101855.69;5075759;28;20039;-48